F/V Jocka — WDG5937 — position and weather

sailwx.info

Track history (hours):
 
Tides and Currents Weather Stations Pressure Air Temp Water Temp Dewpoint Dewpoint Depression Visibility Wind Speed Wind Dir Waves Ship Positions

F/V Jocka

Owner: F/V Jocka, Harpswell, ME. More information available from US FCC via Universal Licensing System and Coast Guard Vessel Documentation Center.

Last reported at 2017-Dec-11 16:54 UTC. Time now 2017-Dec-13 17:04 UTC.
Position N 42°21' W 071°02'.

Length 19 m.

Type: Ship. MMSI: 367551860.

Date/timePositionNaut miles runAvg speedWind from/ knotsBaromVisibWave heightAir tempDewpointWater temp
2017-Dec-11 16:54N 42°21' W 071°02'0 0.0
2017-Dec-11 16:25N 42°21' W 071°02'0 0.0
2017-Dec-11 15:54N 42°21' W 071°02'0 0.0
2017-Dec-11 15:28N 42°21' W 071°02'0 0.0
2017-Dec-11 15:00N 42°21' W 071°02'0 0.0
2017-Dec-11 14:30N 42°21' W 071°02'0 0.0
2017-Dec-11 14:00N 42°21' W 071°02'0 0.0
2017-Dec-11 13:30N 42°21' W 071°02'0 0.0
2017-Dec-11 13:00N 42°21' W 071°02'0 0.0
2017-Dec-11 12:30N 42°21' W 071°02'0 0.0
2017-Dec-11 12:00N 42°21' W 071°02'0 0.0
2017-Dec-11 11:30N 42°21' W 071°02'0 0.0
2017-Dec-11 11:00N 42°21' W 071°02'0 0.0
2017-Dec-11 10:30N 42°21' W 071°02'0 0.0
2017-Dec-11 10:00N 42°21' W 071°02'0 0.0
2017-Dec-11 09:30N 42°21' W 071°02'0 0.0
2017-Dec-11 09:00N 42°21' W 071°02'0 0.0
2017-Dec-11 08:30N 42°21' W 071°02'0 0.0
2017-Dec-11 08:00N 42°21' W 071°02'0 0.0
2017-Dec-11 07:30N 42°21' W 071°02'0 0.0
2017-Dec-11 07:00N 42°21' W 071°02'0 0.0
2017-Dec-11 06:30N 42°21' W 071°02'0 0.0
2017-Dec-11 06:00N 42°21' W 071°02'0 0.0
2017-Dec-11 05:30N 42°21' W 071°02'0 0.0
2017-Dec-11 05:00N 42°21' W 071°02'0 0.0
2017-Dec-11 04:30N 42°21' W 071°02'0 0.0
2017-Dec-11 04:00N 42°21' W 071°02'0 0.0
2017-Dec-11 03:30N 42°21' W 071°02'0 0.0
2017-Dec-11 03:00N 42°21' W 071°02'0 0.0
2017-Dec-11 02:30N 42°21' W 071°02'0 0.0
2017-Dec-11 02:00N 42°21' W 071°02'0 0.0
2017-Dec-11 01:30N 42°21' W 071°02'0 0.0
2017-Dec-11 01:00N 42°21' W 071°02'0 0.0
2017-Dec-11 00:30N 42°21' W 071°02'0 0.0
2017-Dec-11 00:00N 42°21' W 071°02'0 0.0
2017-Dec-10 23:30N 42°21' W 071°02'0 0.0
2017-Dec-10 23:00N 42°21' W 071°02'0 0.0
2017-Dec-10 22:30N 42°21' W 071°02'0 0.0
2017-Dec-10 22:00N 42°21' W 071°02'0 0.0
2017-Dec-10 21:30N 42°21' W 071°02'0 0.0
2017-Dec-10 21:00N 42°21' W 071°02'0 0.0
2017-Dec-10 20:30N 42°21' W 071°02'0 0.0
2017-Dec-10 20:00N 42°21' W 071°02'0 0.0
2017-Dec-10 19:29N 42°21' W 071°02'0 0.0
2017-Dec-10 19:00N 42°21' W 071°02'0 0.0
2017-Dec-10 18:29N 42°21' W 071°02'0 0.0
2017-Dec-10 17:39N 42°21' W 071°02'0 0.0
2017-Dec-10 17:28N 42°21' W 071°02'0 0.0
2017-Dec-10 08:30N 42°21' W 071°02'3 5.9
2017-Dec-10 07:57N 42°20' W 070°58'3 7.1
2017-Dec-10 07:28N 42°23' W 070°55'3 6.5
2017-Dec-10 07:00N 42°24' W 070°51'4 7.0
2017-Dec-10 06:30N 42°26' W 070°47'3 6.9
2017-Dec-10 06:00N 42°27' W 070°43'3 6.8
2017-Dec-10 05:30N 42°29' W 070°39'3 6.9
2017-Dec-10 05:00N 42°31' W 070°35'4 7.1
2017-Dec-10 04:30N 42°33' W 070°31'3 7.0
2017-Dec-10 04:00N 42°34' W 070°27'4 7.1
2017-Dec-10 03:30N 42°36' W 070°23'4 7.1
2017-Dec-10 03:00N 42°38' W 070°18'3 6.9
2017-Dec-10 02:30N 42°40' W 070°14'3 6.9
2017-Dec-10 02:00N 42°41' W 070°10'  
2017-Dec-03 23:31N 42°38' W 070°12'2 7.8
2017-Dec-03 23:13N 42°37' W 070°15'2 7.8
2017-Dec-03 23:00N 42°36' W 070°17'4 7.8
2017-Dec-03 22:30N 42°35' W 070°21'4 7.8
2017-Dec-03 22:00N 42°33' W 070°26'4 7.8
2017-Dec-03 21:30N 42°31' W 070°31'4 8.1
2017-Dec-03 21:00N 42°30' W 070°36'4 8.1
2017-Dec-03 20:30N 42°28' W 070°41'4 8.3
2017-Dec-03 20:00N 42°26' W 070°46'4 8.4
2017-Dec-03 19:30N 42°24' W 070°51'4 8.6
2017-Dec-03 19:00N 42°21' W 070°56'5 7.6
2017-Dec-03 18:23N 42°21' W 071°02'0 0.3
2017-Dec-03 18:00N 42°21' W 071°02'0 0.0
2017-Dec-03 17:30N 42°21' W 071°02'0 0.0
2017-Dec-03 16:59N 42°21' W 071°02'0 0.0
2017-Dec-03 16:30N 42°21' W 071°02'0 0.0
2017-Dec-03 16:00N 42°21' W 071°02'0 0.0
2017-Dec-03 15:30N 42°21' W 071°02'0 0.0
2017-Dec-03 15:00N 42°21' W 071°02'0 0.0
2017-Dec-03 14:30N 42°21' W 071°02'0 0.0
2017-Dec-03 14:00N 42°21' W 071°02'0 0.0
2017-Dec-03 13:30N 42°21' W 071°02'0 0.0
2017-Dec-03 13:00N 42°21' W 071°02'0 0.0
2017-Dec-03 12:30N 42°21' W 071°02'0 0.0
2017-Dec-03 12:00N 42°21' W 071°02'0 0.0
2017-Dec-03 11:30N 42°21' W 071°02'0 0.0
2017-Dec-03 11:00N 42°21' W 071°02'0 0.0
2017-Dec-03 10:30N 42°21' W 071°02'0 0.0
2017-Dec-03 10:00N 42°21' W 071°02'0 0.0
2017-Dec-03 09:30N 42°21' W 071°02'0 0.0
2017-Dec-03 09:00N 42°21' W 071°02'0 0.0
2017-Dec-03 08:30N 42°21' W 071°02'0 0.0
2017-Dec-03 08:00N 42°21' W 071°02'0 0.0
2017-Dec-03 07:30N 42°21' W 071°02'0 0.0
2017-Dec-03 07:00N 42°21' W 071°02'0 0.0
2017-Dec-03 06:30N 42°21' W 071°02'0 0.0
2017-Dec-03 06:00N 42°21' W 071°02'0 0.0
2017-Dec-03 05:30N 42°21' W 071°02'0 0.0
2017-Dec-03 05:00N 42°21' W 071°02'0 0.0
2017-Dec-03 04:30N 42°21' W 071°02'0 0.0
2017-Dec-03 04:00N 42°21' W 071°02'0 0.0
2017-Dec-03 03:30N 42°21' W 071°02'0 0.0
2017-Dec-03 03:00N 42°21' W 071°02'0 0.0
2017-Dec-03 02:30N 42°21' W 071°02'0 0.0
2017-Dec-03 02:00N 42°21' W 071°02'0 0.0
2017-Dec-03 01:30N 42°21' W 071°02'0 0.0
2017-Dec-03 01:00N 42°21' W 071°02'0 0.0
2017-Dec-03 00:30N 42°21' W 071°02'0 0.0
2017-Dec-03 00:00N 42°21' W 071°02'0 0.0
2017-Dec-02 23:30N 42°21' W 071°02'0 0.0
2017-Dec-02 23:00N 42°21' W 071°02'0 0.0
2017-Dec-02 22:30N 42°21' W 071°02'0 0.0
2017-Dec-02 22:00N 42°21' W 071°02'0 0.0
2017-Dec-02 21:26N 42°21' W 071°02'0 0.0
2017-Dec-02 20:57N 42°21' W 071°02'0 0.0
2017-Dec-02 20:24N 42°21' W 071°02'0 0.0
2017-Dec-02 20:00N 42°21' W 071°02'0 0.0
2017-Dec-02 19:28N 42°21' W 071°02'0 0.0
2017-Dec-02 18:59N 42°21' W 071°02'0 0.0
2017-Dec-02 18:30N 42°21' W 071°02'0 0.0
2017-Dec-02 18:00N 42°21' W 071°02'0 0.0
2017-Dec-02 17:30N 42°21' W 071°02'0 0.0
2017-Dec-02 17:00N 42°21' W 071°02'0 0.0
2017-Dec-02 16:30N 42°21' W 071°02'0 0.0
2017-Dec-02 16:00N 42°21' W 071°02'0 0.0
2017-Dec-02 15:30N 42°21' W 071°02'0 0.0
2017-Dec-02 15:00N 42°21' W 071°02'0 0.0
2017-Dec-02 14:30N 42°21' W 071°02'0 0.0
2017-Dec-02 14:00N 42°21' W 071°02'0 0.0
2017-Dec-02 13:30N 42°21' W 071°02'0 0.0
2017-Dec-02 13:00N 42°21' W 071°02'0 0.0
2017-Dec-02 12:30N 42°21' W 071°02'0 0.0
2017-Dec-02 12:00N 42°21' W 071°02'0 0.0
2017-Dec-02 11:30N 42°21' W 071°02'0 0.0
2017-Dec-02 11:00N 42°21' W 071°02'0 0.0
2017-Dec-02 10:30N 42°21' W 071°02'0 0.0
2017-Dec-02 09:59N 42°21' W 071°02'0 0.0
2017-Dec-02 09:29N 42°21' W 071°02'0 0.0
2017-Dec-02 08:59N 42°21' W 071°02'0 0.0
2017-Dec-02 08:28N 42°21' W 071°02'0 0.0
2017-Dec-02 08:00N 42°21' W 071°02'0 0.0
2017-Dec-02 07:30N 42°21' W 071°02'0 0.0
2017-Dec-02 07:00N 42°21' W 071°02'0 0.0
2017-Dec-02 06:30N 42°21' W 071°02'0 0.0
2017-Dec-02 06:00N 42°21' W 071°02'0 0.0
2017-Dec-02 05:30N 42°21' W 071°02'0 0.0
2017-Dec-02 05:00N 42°21' W 071°02'0 0.0
2017-Dec-02 04:30N 42°21' W 071°02'0 0.0
2017-Dec-02 04:00N 42°21' W 071°02'0 0.0
2017-Dec-02 03:30N 42°21' W 071°02'0 0.0
2017-Dec-02 03:00N 42°21' W 071°02'0 0.0
2017-Dec-02 02:30N 42°21' W 071°02'0 0.0
2017-Dec-02 02:00N 42°21' W 071°02'0 0.0
2017-Dec-02 01:30N 42°21' W 071°02'0 0.0
2017-Dec-02 01:00N 42°21' W 071°02'0 0.0
2017-Dec-02 00:30N 42°21' W 071°02'0 0.0
2017-Dec-02 00:00N 42°21' W 071°02'0 0.0
2017-Dec-01 23:30N 42°21' W 071°02'0 0.0
2017-Dec-01 23:00N 42°21' W 071°02'0 0.0
2017-Dec-01 22:30N 42°21' W 071°02'0 0.0
2017-Dec-01 22:00N 42°21' W 071°02'0 0.0
2017-Dec-01 21:30N 42°21' W 071°02'0 0.0
2017-Dec-01 21:00N 42°21' W 071°02'0 0.0
2017-Dec-01 20:28N 42°21' W 071°02'0 0.0
2017-Dec-01 19:56N 42°21' W 071°02'0 0.0
2017-Dec-01 19:16N 42°21' W 071°02'0 0.0
2017-Dec-01 18:49N 42°21' W 071°02'0 0.0
2017-Dec-01 18:27N 42°21' W 071°02'0 0.0
2017-Dec-01 18:00N 42°21' W 071°02'0 0.0
2017-Dec-01 17:30N 42°21' W 071°02'0 0.0
2017-Dec-01 17:00N 42°21' W 071°02'  
Track history (hours):
 
Tides and Currents Weather Stations Pressure Air Temp Water Temp Dewpoint Dewpoint Depression Visibility Wind Speed Wind Dir Waves Ship Positions

F/V Jocka

Owner: F/V Jocka, Harpswell, ME. More information available from US FCC via Universal Licensing System and Coast Guard Vessel Documentation Center.

Last reported at 2017-Dec-11 16:54 UTC. Time now 2017-Dec-13 17:04 UTC.
Position N 42°21' W 071°02'.

Length 19 m.

Type: Ship. MMSI: 367551860.

Date/timePositionNaut miles runAvg speedWind from/ knotsBaromVisibWave heightAir tempDewpointWater temp
2017-Dec-11 16:54N 42°21' W 071°02'0 0.0
2017-Dec-11 16:25N 42°21' W 071°02'0 0.0
2017-Dec-11 15:54N 42°21' W 071°02'0 0.0
2017-Dec-11 15:28N 42°21' W 071°02'0 0.0
2017-Dec-11 15:00N 42°21' W 071°02'0 0.0
2017-Dec-11 14:30N 42°21' W 071°02'0 0.0
2017-Dec-11 14:00N 42°21' W 071°02'0 0.0
2017-Dec-11 13:30N 42°21' W 071°02'0 0.0
2017-Dec-11 13:00N 42°21' W 071°02'0 0.0
2017-Dec-11 12:30N 42°21' W 071°02'0 0.0
2017-Dec-11 12:00N 42°21' W 071°02'0 0.0
2017-Dec-11 11:30N 42°21' W 071°02'0 0.0
2017-Dec-11 11:00N 42°21' W 071°02'0 0.0
2017-Dec-11 10:30N 42°21' W 071°02'0 0.0
2017-Dec-11 10:00N 42°21' W 071°02'0 0.0
2017-Dec-11 09:30N 42°21' W 071°02'0 0.0
2017-Dec-11 09:00N 42°21' W 071°02'0 0.0
2017-Dec-11 08:30N 42°21' W 071°02'0 0.0
2017-Dec-11 08:00N 42°21' W 071°02'0 0.0
2017-Dec-11 07:30N 42°21' W 071°02'0 0.0
2017-Dec-11 07:00N 42°21' W 071°02'0 0.0
2017-Dec-11 06:30N 42°21' W 071°02'0 0.0
2017-Dec-11 06:00N 42°21' W 071°02'0 0.0
2017-Dec-11 05:30N 42°21' W 071°02'0 0.0
2017-Dec-11 05:00N 42°21' W 071°02'0 0.0
2017-Dec-11 04:30N 42°21' W 071°02'0 0.0
2017-Dec-11 04:00N 42°21' W 071°02'0 0.0
2017-Dec-11 03:30N 42°21' W 071°02'0 0.0
2017-Dec-11 03:00N 42°21' W 071°02'0 0.0
2017-Dec-11 02:30N 42°21' W 071°02'0 0.0
2017-Dec-11 02:00N 42°21' W 071°02'0 0.0
2017-Dec-11 01:30N 42°21' W 071°02'0 0.0
2017-Dec-11 01:00N 42°21' W 071°02'0 0.0
2017-Dec-11 00:30N 42°21' W 071°02'0 0.0
2017-Dec-11 00:00N 42°21' W 071°02'0 0.0
2017-Dec-10 23:30N 42°21' W 071°02'0 0.0
2017-Dec-10 23:00N 42°21' W 071°02'0 0.0
2017-Dec-10 22:30N 42°21' W 071°02'0 0.0
2017-Dec-10 22:00N 42°21' W 071°02'0 0.0
2017-Dec-10 21:30N 42°21' W 071°02'0 0.0
2017-Dec-10 21:00N 42°21' W 071°02'0 0.0
2017-Dec-10 20:30N 42°21' W 071°02'0 0.0
2017-Dec-10 20:00N 42°21' W 071°02'0 0.0
2017-Dec-10 19:29N 42°21' W 071°02'0 0.0
2017-Dec-10 19:00N 42°21' W 071°02'0 0.0
2017-Dec-10 18:29N 42°21' W 071°02'0 0.0
2017-Dec-10 17:39N 42°21' W 071°02'0 0.0
2017-Dec-10 17:28N 42°21' W 071°02'0 0.0
2017-Dec-10 08:30N 42°21' W 071°02'3 5.9
2017-Dec-10 07:57N 42°20' W 070°58'3 7.1
2017-Dec-10 07:28N 42°23' W 070°55'3 6.5
2017-Dec-10 07:00N 42°24' W 070°51'4 7.0
2017-Dec-10 06:30N 42°26' W 070°47'3 6.9
2017-Dec-10 06:00N 42°27' W 070°43'3 6.8
2017-Dec-10 05:30N 42°29' W 070°39'3 6.9
2017-Dec-10 05:00N 42°31' W 070°35'4 7.1
2017-Dec-10 04:30N 42°33' W 070°31'3 7.0
2017-Dec-10 04:00N 42°34' W 070°27'4 7.1
2017-Dec-10 03:30N 42°36' W 070°23'4 7.1
2017-Dec-10 03:00N 42°38' W 070°18'3 6.9
2017-Dec-10 02:30N 42°40' W 070°14'3 6.9
2017-Dec-10 02:00N 42°41' W 070°10'  
2017-Dec-03 23:31N 42°38' W 070°12'2 7.8
2017-Dec-03 23:13N 42°37' W 070°15'2 7.8
2017-Dec-03 23:00N 42°36' W 070°17'4 7.8
2017-Dec-03 22:30N 42°35' W 070°21'4 7.8
2017-Dec-03 22:00N 42°33' W 070°26'4 7.8
2017-Dec-03 21:30N 42°31' W 070°31'4 8.1
2017-Dec-03 21:00N 42°30' W 070°36'4 8.1
2017-Dec-03 20:30N 42°28' W 070°41'4 8.3
2017-Dec-03 20:00N 42°26' W 070°46'4 8.4
2017-Dec-03 19:30N 42°24' W 070°51'4 8.6
2017-Dec-03 19:00N 42°21' W 070°56'5 7.6
2017-Dec-03 18:23N 42°21' W 071°02'0 0.3
2017-Dec-03 18:00N 42°21' W 071°02'0 0.0
2017-Dec-03 17:30N 42°21' W 071°02'0 0.0
2017-Dec-03 16:59N 42°21' W 071°02'0 0.0
2017-Dec-03 16:30N 42°21' W 071°02'0 0.0
2017-Dec-03 16:00N 42°21' W 071°02'0 0.0
2017-Dec-03 15:30N 42°21' W 071°02'0 0.0
2017-Dec-03 15:00N 42°21' W 071°02'0 0.0
2017-Dec-03 14:30N 42°21' W 071°02'0 0.0
2017-Dec-03 14:00N 42°21' W 071°02'0 0.0
2017-Dec-03 13:30N 42°21' W 071°02'0 0.0
2017-Dec-03 13:00N 42°21' W 071°02'0 0.0
2017-Dec-03 12:30N 42°21' W 071°02'0 0.0
2017-Dec-03 12:00N 42°21' W 071°02'0 0.0
2017-Dec-03 11:30N 42°21' W 071°02'0 0.0
2017-Dec-03 11:00N 42°21' W 071°02'0 0.0
2017-Dec-03 10:30N 42°21' W 071°02'0 0.0
2017-Dec-03 10:00N 42°21' W 071°02'0 0.0
2017-Dec-03 09:30N 42°21' W 071°02'0 0.0
2017-Dec-03 09:00N 42°21' W 071°02'0 0.0
2017-Dec-03 08:30N 42°21' W 071°02'0 0.0
2017-Dec-03 08:00N 42°21' W 071°02'0 0.0
2017-Dec-03 07:30N 42°21' W 071°02'0 0.0
2017-Dec-03 07:00N 42°21' W 071°02'0 0.0
2017-Dec-03 06:30N 42°21' W 071°02'0 0.0
2017-Dec-03 06:00N 42°21' W 071°02'0 0.0
2017-Dec-03 05:30N 42°21' W 071°02'0 0.0
2017-Dec-03 05:00N 42°21' W 071°02'0 0.0
2017-Dec-03 04:30N 42°21' W 071°02'0 0.0
2017-Dec-03 04:00N 42°21' W 071°02'0 0.0
2017-Dec-03 03:30N 42°21' W 071°02'0 0.0
2017-Dec-03 03:00N 42°21' W 071°02'0 0.0
2017-Dec-03 02:30N 42°21' W 071°02'0 0.0
2017-Dec-03 02:00N 42°21' W 071°02'0 0.0
2017-Dec-03 01:30N 42°21' W 071°02'0 0.0
2017-Dec-03 01:00N 42°21' W 071°02'0 0.0
2017-Dec-03 00:30N 42°21' W 071°02'0 0.0
2017-Dec-03 00:00N 42°21' W 071°02'0 0.0
2017-Dec-02 23:30N 42°21' W 071°02'0 0.0
2017-Dec-02 23:00N 42°21' W 071°02'0 0.0
2017-Dec-02 22:30N 42°21' W 071°02'0 0.0
2017-Dec-02 22:00N 42°21' W 071°02'0 0.0
2017-Dec-02 21:26N 42°21' W 071°02'0 0.0
2017-Dec-02 20:57N 42°21' W 071°02'0 0.0
2017-Dec-02 20:24N 42°21' W 071°02'0 0.0
2017-Dec-02 20:00N 42°21' W 071°02'0 0.0
2017-Dec-02 19:28N 42°21' W 071°02'0 0.0
2017-Dec-02 18:59N 42°21' W 071°02'0 0.0
2017-Dec-02 18:30N 42°21' W 071°02'0 0.0
2017-Dec-02 18:00N 42°21' W 071°02'0 0.0
2017-Dec-02 17:30N 42°21' W 071°02'0 0.0
2017-Dec-02 17:00N 42°21' W 071°02'0 0.0
2017-Dec-02 16:30N 42°21' W 071°02'0 0.0
2017-Dec-02 16:00N 42°21' W 071°02'0 0.0
2017-Dec-02 15:30N 42°21' W 071°02'0 0.0
2017-Dec-02 15:00N 42°21' W 071°02'0 0.0
2017-Dec-02 14:30N 42°21' W 071°02'0 0.0
2017-Dec-02 14:00N 42°21' W 071°02'0 0.0
2017-Dec-02 13:30N 42°21' W 071°02'0 0.0
2017-Dec-02 13:00N 42°21' W 071°02'0 0.0
2017-Dec-02 12:30N 42°21' W 071°02'0 0.0
2017-Dec-02 12:00N 42°21' W 071°02'0 0.0
2017-Dec-02 11:30N 42°21' W 071°02'0 0.0
2017-Dec-02 11:00N 42°21' W 071°02'0 0.0
2017-Dec-02 10:30N 42°21' W 071°02'0 0.0
2017-Dec-02 09:59N 42°21' W 071°02'0 0.0
2017-Dec-02 09:29N 42°21' W 071°02'0 0.0
2017-Dec-02 08:59N 42°21' W 071°02'0 0.0
2017-Dec-02 08:28N 42°21' W 071°02'0 0.0
2017-Dec-02 08:00N 42°21' W 071°02'0 0.0
2017-Dec-02 07:30N 42°21' W 071°02'0 0.0
2017-Dec-02 07:00N 42°21' W 071°02'0 0.0
2017-Dec-02 06:30N 42°21' W 071°02'0 0.0
2017-Dec-02 06:00N 42°21' W 071°02'0 0.0
2017-Dec-02 05:30N 42°21' W 071°02'0 0.0
2017-Dec-02 05:00N 42°21' W 071°02'0 0.0
2017-Dec-02 04:30N 42°21' W 071°02'0 0.0
2017-Dec-02 04:00N 42°21' W 071°02'0 0.0
2017-Dec-02 03:30N 42°21' W 071°02'0 0.0
2017-Dec-02 03:00N 42°21' W 071°02'0 0.0
2017-Dec-02 02:30N 42°21' W 071°02'0 0.0
2017-Dec-02 02:00N 42°21' W 071°02'0 0.0
2017-Dec-02 01:30N 42°21' W 071°02'0 0.0
2017-Dec-02 01:00N 42°21' W 071°02'0 0.0
2017-Dec-02 00:30N 42°21' W 071°02'0 0.0
2017-Dec-02 00:00N 42°21' W 071°02'0 0.0
2017-Dec-01 23:30N 42°21' W 071°02'0 0.0
2017-Dec-01 23:00N 42°21' W 071°02'0 0.0
2017-Dec-01 22:30N 42°21' W 071°02'0 0.0
2017-Dec-01 22:00N 42°21' W 071°02'0 0.0
2017-Dec-01 21:30N 42°21' W 071°02'0 0.0
2017-Dec-01 21:00N 42°21' W 071°02'0 0.0
2017-Dec-01 20:28N 42°21' W 071°02'0 0.0
2017-Dec-01 19:56N 42°21' W 071°02'0 0.0
2017-Dec-01 19:16N 42°21' W 071°02'0 0.0
2017-Dec-01 18:49N 42°21' W 071°02'0 0.0
2017-Dec-01 18:27N 42°21' W 071°02'0 0.0
2017-Dec-01 18:00N 42°21' W 071°02'0 0.0
2017-Dec-01 17:30N 42°21' W 071°02'0 0.0
2017-Dec-01 17:00N 42°21' W 071°02'  

Dump ship's entire track history